Time;durP1;ratioP1;P1;durP2;ratioP2;P2;SDS_P1;SDS_P2;PMS_P1;PMS_P2;Temp;Humidity;BMP_temperature;BMP_pressure;BME280_temperature;BME280_humidity;BME280_pressure;Samples;Min_cycle;Max_cycle;Signal;HPM_P1;HPM_P2
2022/05/15 00:01:01;;;;;;;;;;;;;;;23.30;42.74;100730.00;5075046;28;1890;-38
2022/05/15 00:03:26;;;;;;;;;;;;;;;22.90;47.55;100720.66;5076243;28;857;-38
2022/05/15 00:05:53;;;;;;;;;;;;;;;24.60;40.95;100718.44;5076184;28;809;-40
2022/05/15 00:08:18;;;;;;;;;;;;;;;25.26;40.12;100721.13;5076321;28;798;-40
2022/05/15 00:10:44;;;;;;;;;;;;;;;25.64;39.73;100728.66;5076091;28;841;-39
2022/05/15 00:13:09;;;;;;;;;;;;;;;25.87;38.36;100732.44;5075982;28;833;-37
2022/05/15 00:15:35;;;;;;;;;;;;;;;25.84;40.04;100736.31;5075901;28;1014;-40
2022/05/15 00:18:00;;;;;;;;;;;;;;;25.97;37.96;100721.44;5076359;28;834;-37
2022/05/15 00:20:26;;;;;;;;;;;;;;;26.02;38.52;100728.00;5076192;28;1985;-40
2022/05/15 00:22:51;;;;;;;;;;;;;;;26.04;39.73;100725.13;5075788;28;892;-39
2022/05/15 00:25:16;;;;;;;;;;;;;;;26.14;37.93;100722.22;5076561;28;1079;-39
2022/05/15 00:27:42;;;;;;;;;;;;;;;26.08;38.87;100734.53;5075920;28;838;-39
2022/05/15 00:30:07;;;;;;;;;;;;;;;22.68;43.66;100730.84;5076461;28;1050;-40
2022/05/15 00:32:33;;;;;;;;;;;;;;;23.58;44.51;100729.88;5076514;28;740;-38
2022/05/15 00:34:58;;;;;;;;;;;;;;;24.94;40.93;100728.25;5075428;28;869;-40
2022/05/15 00:37:23;;;;;;;;;;;;;;;25.42;39.20;100722.94;5075679;28;797;-37
2022/05/15 00:39:49;;;;;;;;;;;;;;;25.70;40.12;100720.88;5076331;28;1902;-40
2022/05/15 00:42:14;;;;;;;;;;;;;;;25.93;38.15;100720.97;5075887;28;814;-39
2022/05/15 00:44:39;;;;;;;;;;;;;;;25.93;38.91;100720.97;5076383;28;757;-38
2022/05/15 00:47:05;;;;;;;;;;;;;;;26.01;38.61;100723.63;5075665;28;1025;-39
2022/05/15 00:49:30;;;;;;;;;;;;;;;26.02;38.03;100721.78;5075978;28;832;-39
2022/05/15 00:52:03;;;;;;;;;;;;;;;26.04;39.27;100730.53;5057984;28;805;-39
2022/05/15 00:54:35;;;;;;;;;;;;;;;26.18;37.55;100734.31;5076153;28;823;-40
2022/05/15 00:57:05;;;;;;;;;;;;;;;26.12;37.73;100738.56;5075421;28;853;-37
2022/05/15 00:59:32;;;;;;;;;;;;;;;26.03;39.56;100739.59;5075532;28;1906;-40
2022/05/15 01:01:57;;;;;;;;;;;;;;;23.09;42.35;100743.75;5075079;28;844;-38
2022/05/15 01:04:23;;;;;;;;;;;;;;;23.31;45.31;100745.09;5075949;28;845;-40
2022/05/15 01:06:48;;;;;;;;;;;;;;;24.83;40.65;100740.16;5075860;28;886;-39
2022/05/15 01:09:13;;;;;;;;;;;;;;;25.38;39.47;100737.78;5075933;28;794;-39
2022/05/15 01:11:39;;;;;;;;;;;;;;;25.84;38.84;100741.69;5077148;28;822;-40
2022/05/15 01:14:06;;;;;;;;;;;;;;;25.96;37.80;100739.47;5079192;28;909;-38
2022/05/15 01:16:31;;;;;;;;;;;;;;;25.95;38.83;100736.94;5061723;28;863;-40
2022/05/15 01:18:56;;;;;;;;;;;;;;;26.02;38.85;100733.41;5079266;28;1905;-40
2022/05/15 01:21:22;;;;;;;;;;;;;;;26.09;37.96;100730.81;5079375;28;825;-40
2022/05/15 01:23:48;;;;;;;;;;;;;;;25.94;39.73;100728.03;5079627;28;818;-37
2022/05/15 01:26:13;;;;;;;;;;;;;;;26.10;37.92;100720.88;5078780;28;1032;-41
2022/05/15 01:28:38;;;;;;;;;;;;;;;26.13;38.53;100724.06;5078880;28;975;-39
2022/05/15 01:31:03;;;;;;;;;;;;;;;26.07;39.12;100716.69;5078733;28;901;-37
2022/05/15 01:33:29;;;;;;;;;;;;;;;26.14;37.64;100719.53;5079181;28;810;-39
2022/05/15 01:35:54;;;;;;;;;;;;;;;26.17;38.62;100719.16;5078589;28;857;-38
2022/05/15 01:38:19;;;;;;;;;;;;;;;22.94;43.14;100712.13;5078822;28;832;-38
2022/05/15 01:40:45;;;;;;;;;;;;;;;23.34;45.51;100717.94;5078528;28;1913;-39
2022/05/15 01:43:10;;;;;;;;;;;;;;;24.93;40.50;100710.41;5078862;28;940;-38
2022/05/15 01:45:35;;;;;;;;;;;;;;;25.54;39.15;100711.84;5078301;28;865;-39
2022/05/15 01:48:01;;;;;;;;;;;;;;;25.95;39.19;100715.38;5078970;28;801;-39
2022/05/15 01:50:26;;;;;;;;;;;;;;;25.92;38.19;100703.94;5078391;28;802;-39
2022/05/15 01:52:51;;;;;;;;;;;;;;;25.97;39.27;100700.75;5078673;28;884;-40
2022/05/15 01:55:16;;;;;;;;;;;;;;;26.03;38.04;100697.34;5078775;28;924;-40
2022/05/15 01:57:42;;;;;;;;;;;;;;;25.67;38.08;100644.78;5078391;28;802;-39
2022/05/15 02:00:08;;;;;;;;;;;;;;;26.01;40.13;100703.91;5078532;28;1898;-39
2022/05/15 02:02:34;;;;;;;;;;;;;;;26.05;38.25;100707.94;5078533;28;890;-39
2022/05/15 02:04:59;;;;;;;;;;;;;;;25.64;35.16;100709.78;5078110;28;896;-39
2022/05/15 02:07:24;;;;;;;;;;;;;;;22.55;44.38;100707.94;5078688;28;809;-41
2022/05/15 02:09:49;;;;;;;;;;;;;;;23.73;43.83;100716.69;5078374;28;802;-39
2022/05/15 02:12:15;;;;;;;;;;;;;;;24.98;41.53;100723.34;5078188;28;793;-39
2022/05/15 02:14:40;;;;;;;;;;;;;;;25.42;39.64;100719.44;5078140;28;822;-39
2022/05/15 02:17:05;;;;;;;;;;;;;;;25.72;40.13;100730.50;5077553;28;1042;-38
2022/05/15 02:19:31;;;;;;;;;;;;;;;25.93;38.20;100739.81;5077784;28;1894;-41
2022/05/15 02:21:56;;;;;;;;;;;;;;;25.87;38.69;100743.22;5077692;28;869;-39
2022/05/15 02:24:21;;;;;;;;;;;;;;;25.95;39.78;100740.50;5077665;28;903;-39
2022/05/15 02:26:47;;;;;;;;;;;;;;;26.01;38.41;100747.03;5078001;28;1066;-41
2022/05/15 02:29:12;;;;;;;;;;;;;;;26.02;39.20;100751.41;5077566;28;860;-38
2022/05/15 02:31:38;;;;;;;;;;;;;;;26.08;38.99;100750.72;5078187;28;822;-40
2022/05/15 02:34:03;;;;;;;;;;;;;;;24.27;39.84;100760.41;5077973;28;873;-40
2022/05/15 02:36:28;;;;;;;;;;;;;;;22.17;44.91;100755.44;5078103;28;789;-39
2022/05/15 02:38:53;;;;;;;;;;;;;;;23.63;43.93;100756.25;5077530;28;1906;-40
2022/05/15 02:41:19;;;;;;;;;;;;;;;24.86;41.30;100764.03;5077733;28;808;-40
2022/05/15 02:43:44;;;;;;;;;;;;;;;25.41;39.20;100763.50;5077236;28;1058;-38
2022/05/15 02:46:10;;;;;;;;;;;;;;;25.58;40.00;100758.09;5077367;28;924;-38
2022/05/15 02:51:19;;;;;;;;;;;;;;;25.89;38.30;100766.28;5077435;28;591;-40
2022/05/15 02:53:45;;;;;;;;;;;;;;;25.88;39.79;100763.75;5077272;28;782;-41
2022/05/15 02:56:15;;;;;;;;;;;;;;;25.95;41.29;100767.44;5076737;28;1005;-42
2022/05/15 02:58:40;;;;;;;;;;;;;;;26.01;40.41;100777.53;5077271;28;1532;-38
2022/05/15 03:01:05;;;;;;;;;;;;;;;26.08;40.02;100780.34;5076807;28;1929;-39
2022/05/15 03:03:31;;;;;;;;;;;;;;;26.08;39.85;100779.50;5077144;28;823;-39
2022/05/15 03:05:56;;;;;;;;;;;;;;;26.08;40.15;100787.59;5077254;28;878;-40
2022/05/15 03:08:21;;;;;;;;;;;;;;;26.12;40.49;100797.88;5077374;28;945;-41
2022/05/15 03:10:47;;;;;;;;;;;;;;;26.05;40.51;100799.59;5076780;28;881;-39
2022/05/15 03:13:12;;;;;;;;;;;;;;;26.08;40.74;100798.38;5077682;28;782;-39
2022/05/15 03:15:37;;;;;;;;;;;;;;;26.10;40.32;100796.34;5077038;28;926;-39
2022/05/15 03:18:03;;;;;;;;;;;;;;;26.20;40.40;100807.78;5076628;28;849;-39
2022/05/15 03:20:28;;;;;;;;;;;;;;;26.27;40.32;100816.00;5076513;28;1905;-39
2022/05/15 03:22:54;;;;;;;;;;;;;;;26.26;40.41;100820.56;5076852;28;857;-35
2022/05/15 03:25:19;;;;;;;;;;;;;;;26.30;40.63;100821.03;5076178;28;1233;-38
2022/05/15 03:27:45;;;;;;;;;;;;;;;26.28;40.96;100814.97;5076908;28;836;-39
2022/05/15 03:30:10;;;;;;;;;;;;;;;26.29;40.65;100816.69;5058582;28;986;-40
2022/05/15 03:32:37;;;;;;;;;;;;;;;26.33;40.80;100814.47;5075828;28;1128;-38
2022/05/15 03:35:02;;;;;;;;;;;;;;;26.34;40.69;100806.22;5076800;28;821;-38
2022/05/15 03:37:27;;;;;;;;;;;;;;;26.51;40.17;100809.66;5077177;28;761;-38
2022/05/15 03:39:53;;;;;;;;;;;;;;;26.40;40.54;100815.47;5076373;28;1926;-36
2022/05/15 03:42:19;;;;;;;;;;;;;;;26.09;42.56;100814.38;5076802;28;793;-39
2022/05/15 03:44:44;;;;;;;;;;;;;;;26.06;42.78;100811.22;5077072;28;717;-36
2022/05/15 03:47:09;;;;;;;;;;;;;;;26.09;42.59;100811.69;5075909;28;1014;-38
2022/05/15 03:49:35;;;;;;;;;;;;;;;26.17;42.48;100818.91;5076880;28;1228;-39
2022/05/15 03:52:02;;;;;;;;;;;;;;;26.17;42.85;100830.53;5058560;28;1539;-35
2022/05/15 03:54:27;;;;;;;;;;;;;;;26.26;42.12;100835.88;5075485;28;1532;-39
2022/05/15 03:56:53;;;;;;;;;;;;;;;26.14;42.54;100830.88;5074491;28;1529;-36
2022/05/15 03:59:22;;;;;;;;;;;;;;;26.09;42.92;100835.94;5075567;28;1894;-37
2022/05/15 04:01:48;;;;;;;;;;;;;;;25.94;43.23;100843.09;5075270;28;1208;-41
2022/05/15 04:04:13;;;;;;;;;;;;;;;26.06;42.76;100844.38;5057869;28;1282;-39
2022/05/15 04:06:38;;;;;;;;;;;;;;;26.06;43.93;100847.09;5075348;28;808;-37
2022/05/15 04:09:04;;;;;;;;;;;;;;;26.08;42.95;100855.84;5075486;28;769;-38
2022/05/15 04:11:29;;;;;;;;;;;;;;;25.74;43.92;100865.84;5075580;28;845;-41
2022/05/15 04:13:54;;;;;;;;;;;;;;;25.59;44.09;100856.75;5076296;28;843;-39
2022/05/15 04:16:19;;;;;;;;;;;;;;;25.83;43.37;100857.75;5076129;28;1050;-39
2022/05/15 04:18:45;;;;;;;;;;;;;;;26.13;42.42;100864.25;5076163;28;837;-40
2022/05/15 04:21:10;;;;;;;;;;;;;;;26.20;41.98;100864.41;5075736;28;1938;-37
2022/05/15 04:23:36;;;;;;;;;;;;;;;26.06;42.17;100867.81;5076045;28;829;-39
2022/05/15 04:26:01;;;;;;;;;;;;;;;26.05;41.97;100872.38;5075874;28;1275;-38
2022/05/15 04:28:26;;;;;;;;;;;;;;;26.10;41.90;100869.16;5075928;28;742;-40
2022/05/15 04:30:52;;;;;;;;;;;;;;;26.27;41.77;100873.50;5075905;28;967;-40
2022/05/15 04:33:17;;;;;;;;;;;;;;;26.56;41.15;100875.75;5075944;28;787;-40
2022/05/15 04:35:42;;;;;;;;;;;;;;;26.49;40.91;100870.22;5076343;28;810;-39
2022/05/15 04:38:08;;;;;;;;;;;;;;;26.47;41.28;100870.41;5075623;28;841;-39
2022/05/15 04:40:33;;;;;;;;;;;;;;;26.42;41.03;100867.38;5075633;28;1973;-37
2022/05/15 04:42:59;;;;;;;;;;;;;;;26.64;40.71;100871.13;5076589;28;766;-38
2022/05/15 04:45:24;;;;;;;;;;;;;;;26.67;40.61;100877.22;5075921;28;808;-36
2022/05/15 04:47:49;;;;;;;;;;;;;;;26.62;40.62;100878.59;5079363;28;750;-37
2022/05/15 04:50:15;;;;;;;;;;;;;;;26.70;40.73;100868.75;5079720;28;1512;-37
2022/05/15 04:52:40;;;;;;;;;;;;;;;26.62;40.57;100877.75;5079907;28;911;-38
2022/05/15 04:55:06;;;;;;;;;;;;;;;26.63;40.90;100877.56;5079765;28;798;-38
2022/05/15 04:57:31;;;;;;;;;;;;;;;26.57;40.60;100880.13;5079707;28;832;-40
2022/05/15 04:59:56;;;;;;;;;;;;;;;26.61;40.70;100876.06;5079193;28;1981;-38
2022/05/15 05:02:21;;;;;;;;;;;;;;;26.72;40.50;100885.63;5079188;28;971;-39
2022/05/15 05:04:47;;;;;;;;;;;;;;;26.63;40.54;100892.91;5079578;28;905;-38
2022/05/15 05:07:12;;;;;;;;;;;;;;;26.61;40.09;100890.38;5079504;28;813;-38
2022/05/15 05:09:38;;;;;;;;;;;;;;;26.61;40.00;100890.38;5079550;28;774;-40
2022/05/15 05:12:03;;;;;;;;;;;;;;;26.60;39.93;100894.09;5079332;28;806;-37
2022/05/15 05:14:28;;;;;;;;;;;;;;;26.60;40.14;100894.09;5078876;28;1095;-38
2022/05/15 05:16:54;;;;;;;;;;;;;;;26.55;40.28;100891.09;5079204;28;785;-40
2022/05/15 05:19:19;;;;;;;;;;;;;;;26.65;39.90;100896.28;5079038;28;1897;-39
2022/05/15 05:21:44;;;;;;;;;;;;;;;26.63;39.71;100890.19;5079485;28;816;-39
2022/05/15 05:24:10;;;;;;;;;;;;;;;26.66;39.75;100895.25;5078776;28;766;-41
2022/05/15 05:26:35;;;;;;;;;;;;;;;26.68;39.31;100889.66;5079124;28;1105;-38
2022/05/15 05:29:00;;;;;;;;;;;;;;;26.62;39.85;100894.78;5078884;28;897;-39
2022/05/15 05:31:25;;;;;;;;;;;;;;;26.61;40.15;100893.06;5078616;28;971;-39
2022/05/15 05:33:51;;;;;;;;;;;;;;;26.64;39.72;100891.91;5079220;28;805;-35
2022/05/15 05:36:16;;;;;;;;;;;;;;;26.80;39.28;100893.66;5079140;28;774;-38
2022/05/15 05:38:41;;;;;;;;;;;;;;;26.85;38.97;100896.69;5078964;28;816;-40
2022/05/15 05:41:07;;;;;;;;;;;;;;;26.84;39.46;100891.47;5060034;28;1910;-38
2022/05/15 05:43:32;;;;;;;;;;;;;;;26.93;39.17;100893.06;5078996;28;870;-37
2022/05/15 05:45:58;;;;;;;;;;;;;;;26.98;38.91;100906.03;5078111;28;986;-38
2022/05/15 05:48:23;;;;;;;;;;;;;;;26.86;38.99;100906.44;5078298;28;897;-38
2022/05/15 05:50:48;;;;;;;;;;;;;;;26.91;38.81;100905.91;5078977;28;825;-36
2022/05/15 05:53:13;;;;;;;;;;;;;;;26.76;38.97;100909.38;5078065;28;905;-40
2022/05/15 05:55:39;;;;;;;;;;;;;;;26.80;38.76;100906.31;5078637;28;814;-39
2022/05/15 05:58:04;;;;;;;;;;;;;;;26.86;38.57;100903.75;5078355;28;841;-38
2022/05/15 06:00:32;;;;;;;;;;;;;;;26.83;38.78;100912.19;5078109;28;1963;-38
2022/05/15 06:05:41;;;;;;;;;;;;;;;27.09;39.19;100907.53;5078143;28;837;-40
2022/05/15 06:08:07;;;;;;;;;;;;;;;27.09;38.83;100910.22;5069093;28;1151;-39
2022/05/15 06:10:32;;;;;;;;;;;;;;;27.05;38.92;100914.28;5058505;28;909;-39
2022/05/15 06:12:57;;;;;;;;;;;;;;;27.15;38.45;100906.81;5058461;28;901;-40
2022/05/15 06:15:23;;;;;;;;;;;;;;;27.16;38.54;100905.78;5062207;28;1049;-40
2022/05/15 06:17:48;;;;;;;;;;;;;;;27.21;38.61;100902.56;5078604;28;914;-37
2022/05/15 06:20:13;;;;;;;;;;;;;;;27.25;38.61;100906.56;5077571;28;1972;-39
2022/05/15 06:22:38;;;;;;;;;;;;;;;27.25;39.04;100906.56;5078043;28;821;-40
2022/05/15 06:25:04;;;;;;;;;;;;;;;27.17;38.86;100901.22;5077966;28;834;-40
2022/05/15 06:27:29;;;;;;;;;;;;;;;27.16;38.75;100900.38;5077917;28;1221;-40
2022/05/15 06:29:57;;;;;;;;;;;;;;;27.23;38.51;100901.34;5059009;28;967;-39
2022/05/15 06:32:23;;;;;;;;;;;;;;;27.19;38.68;100899.19;5077570;28;825;-41
2022/05/15 06:34:48;;;;;;;;;;;;;;;27.13;38.76;100896.19;5077616;28;819;-37
2022/05/15 06:37:13;;;;;;;;;;;;;;;27.25;39.03;100903.88;5077914;28;934;-41
2022/05/15 06:39:39;;;;;;;;;;;;;;;27.33;39.21;100913.75;5077522;28;1905;-40
2022/05/15 06:42:04;;;;;;;;;;;;;;;27.30;38.60;100909.56;5077620;28;785;-39
2022/05/15 06:44:29;;;;;;;;;;;;;;;27.14;39.49;100905.97;5077655;28;833;-34
2022/05/15 06:46:56;;;;;;;;;;;;;;;27.21;39.13;100902.56;5076943;28;986;-40
2022/05/15 06:49:21;;;;;;;;;;;;;;;27.17;39.22;100906.63;5077213;28;785;-39
2022/05/15 06:51:47;;;;;;;;;;;;;;;27.13;39.13;100904.28;5077867;28;864;-40
2022/05/15 06:54:12;;;;;;;;;;;;;;;27.13;39.41;100907.00;5077281;28;778;-39
2022/05/15 06:59:22;;;;;;;;;;;;;;;27.07;39.75;100915.81;5077227;28;1985;-40
2022/05/15 07:01:47;;;;;;;;;;;;;;;27.13;39.74;100915.09;5076987;28;999;-38
2022/05/15 07:04:12;;;;;;;;;;;;;;;27.06;40.10;100924.09;5076748;28;877;-40
2022/05/15 07:06:37;;;;;;;;;;;;;;;27.04;40.07;100921.56;5077716;28;768;-39
2022/05/15 07:09:03;;;;;;;;;;;;;;;27.08;39.95;100928.28;5076169;28;856;-40
2022/05/15 07:11:28;;;;;;;;;;;;;;;27.16;40.07;100919.28;5076949;28;809;-40
2022/05/15 07:13:54;;;;;;;;;;;;;;;27.16;40.19;100921.97;5076838;28;893;-38
2022/05/15 07:16:19;;;;;;;;;;;;;;;27.10;40.52;100928.09;5076671;28;982;-40
2022/05/15 07:18:44;;;;;;;;;;;;;;;27.22;39.95;100918.59;5077391;28;825;-40
2022/05/15 07:21:10;;;;;;;;;;;;;;;27.27;40.11;100923.44;5077269;28;1977;-36
2022/05/15 07:23:35;;;;;;;;;;;;;;;27.38;39.56;100920.31;5075883;28;876;-38
2022/05/15 07:26:01;;;;;;;;;;;;;;;27.44;40.00;100915.22;5076963;28;1043;-36
2022/05/15 07:28:26;;;;;;;;;;;;;;;27.32;39.87;100914.78;5076590;28;1022;-38
2022/05/15 07:30:51;;;;;;;;;;;;;;;27.31;40.12;100918.53;5076324;28;1022;-40
2022/05/15 07:33:23;;;;;;;;;;;;;;;27.48;39.47;100927.31;5076663;28;853;-40
2022/05/15 07:35:48;;;;;;;;;;;;;;;27.43;40.02;100918.91;5076506;28;903;-38
2022/05/15 07:38:14;;;;;;;;;;;;;;;27.49;40.23;100924.44;5076393;28;729;-37
2022/05/15 07:40:39;;;;;;;;;;;;;;;27.41;40.20;100918.28;5076408;28;1918;-37
2022/05/15 07:43:08;;;;;;;;;;;;;;;27.53;40.53;100927.63;5076431;28;821;-37
2022/05/15 07:45:33;;;;;;;;;;;;;;;27.58;40.05;100930.63;5076348;28;986;-40
2022/05/15 07:47:58;;;;;;;;;;;;;;;27.52;40.29;100923.25;5076023;28;841;-37
2022/05/15 07:50:23;;;;;;;;;;;;;;;27.56;40.15;100926.44;5076631;28;825;-40
2022/05/15 07:52:49;;;;;;;;;;;;;;;27.62;40.34;100929.25;5076119;28;750;-36
2022/05/15 07:55:14;;;;;;;;;;;;;;;27.66;40.42;100924.28;5076500;28;837;-40
2022/05/15 07:57:39;;;;;;;;;;;;;;;27.66;40.32;100935.09;5076275;28;865;-38
2022/05/15 08:00:05;;;;;;;;;;;;;;;27.55;40.20;100938.25;5075858;28;1901;-38
2022/05/15 08:02:31;;;;;;;;;;;;;;;27.61;40.24;100937.53;5076271;28;879;-37
2022/05/15 08:10:24;;;;;;;;;;;;;;;27.67;39.60;100936.81;5076264;28;602;-37
2022/05/15 08:12:49;;;;;;;;;;;;;;;27.65;39.65;100948.81;5075660;28;849;-39
2022/05/15 08:15:15;;;;;;;;;;;;;;;27.69;39.09;100937.50;5075546;28;1002;-36
2022/05/15 08:17:40;;;;;;;;;;;;;;;27.66;38.88;100945.09;5076648;28;797;-38
2022/05/15 08:25:35;;;;;;;;;;;;;;;27.47;39.72;100949.97;5064437;28;1195;-41
2022/05/15 08:28:00;;;;;;;;;;;;;;;27.53;39.67;100956.53;5080289;28;785;-36
2022/05/15 08:30:27;;;;;;;;;;;;;;;27.47;39.39;100950.81;5079633;28;847;-40
2022/05/15 08:32:53;;;;;;;;;;;;;;;27.52;39.13;100958.38;5080022;28;826;-39
2022/05/15 08:35:18;;;;;;;;;;;;;;;27.55;39.44;100957.16;5080159;28;903;-38
2022/05/15 08:37:44;;;;;;;;;;;;;;;27.57;39.49;100952.41;5061536;28;834;-38
2022/05/15 08:40:09;;;;;;;;;;;;;;;27.62;38.97;100952.72;5079568;28;1918;-37
2022/05/15 08:42:37;;;;;;;;;;;;;;;27.58;38.83;100962.19;5062170;28;736;-38
2022/05/15 08:45:03;;;;;;;;;;;;;;;27.60;38.68;100957.47;5079820;28;983;-34
2022/05/15 08:47:31;;;;;;;;;;;;;;;27.58;38.75;100954.09;5061783;28;1173;-38
2022/05/15 08:50:00;;;;;;;;;;;;;;;27.56;38.84;100950.75;5079638;28;1513;-40
2022/05/15 08:52:37;;;;;;;;;;;;;;;27.57;38.60;100949.72;5079410;28;908;-39
2022/05/15 08:55:08;;;;;;;;;;;;;;;27.56;38.97;100956.16;5079518;28;861;-36
2022/05/15 08:57:40;;;;;;;;;;;;;;;27.51;38.60;100953.97;5079572;28;857;-37
2022/05/15 09:00:10;;;;;;;;;;;;;;;27.61;38.59;100949.16;5078737;28;1964;-40
2022/05/15 09:02:37;;;;;;;;;;;;;;;27.62;38.86;100945.47;5079064;28;1222;-37
2022/05/15 09:05:02;;;;;;;;;;;;;;;27.53;38.85;100949.22;5078594;28;1313;-39
2022/05/15 09:07:37;;;;;;;;;;;;;;;27.54;38.97;100950.94;5061696;28;1207;-38
2022/05/15 09:10:15;;;;;;;;;;;;;;;27.59;38.87;100951.19;5079148;28;873;-37
2022/05/15 09:12:41;;;;;;;;;;;;;;;27.58;38.56;100945.97;5079605;28;718;-39
2022/05/15 09:15:06;;;;;;;;;;;;;;;27.56;39.11;100951.56;5061077;28;975;-40
2022/05/15 09:17:32;;;;;;;;;;;;;;;27.55;38.81;100949.91;5079048;28;853;-40
2022/05/15 09:19:58;;;;;;;;;;;;;;;27.56;38.65;100951.56;5079283;28;1889;-40
2022/05/15 09:22:44;;;;;;;;;;;;;;;27.57;38.89;100947.00;5078964;28;892;-40
2022/05/15 09:25:13;;;;;;;;;;;;;;;27.54;38.83;100959.03;5078112;28;1111;-40
2022/05/15 09:27:39;;;;;;;;;;;;;;;27.67;38.35;100961.13;5079338;28;905;-41
2022/05/15 09:30:09;;;;;;;;;;;;;;;27.61;38.11;100959.97;5060484;28;1356;-38
2022/05/15 09:32:39;;;;;;;;;;;;;;;27.73;38.47;100963.13;5078723;28;758;-39
2022/05/15 09:35:05;;;;;;;;;;;;;;;27.72;38.32;100952.50;5078995;28;773;-39
2022/05/15 09:40:19;;;;;;;;;;;;;;;27.73;38.51;100948.75;5078886;28;1910;-39
2022/05/15 09:45:35;;;;;;;;;;;;;;;27.66;38.32;100942.41;5078360;28;603;-36
2022/05/15 09:48:02;;;;;;;;;;;;;;;27.61;38.39;100938.34;5078574;28;1534;-40
2022/05/15 09:50:37;;;;;;;;;;;;;;;27.73;38.76;100940.66;5078372;28;1302;-38
2022/05/15 09:53:06;;;;;;;;;;;;;;;27.66;38.56;100937.81;5078802;28;841;-40
2022/05/15 09:55:31;;;;;;;;;;;;;;;27.67;39.28;100942.22;5077822;28;897;-40
2022/05/15 09:57:57;;;;;;;;;;;;;;;27.70;39.06;100941.03;5078145;28;833;-40
2022/05/15 10:00:23;;;;;;;;;;;;;;;27.70;39.01;100943.72;5078344;28;1964;-41
2022/05/15 10:02:54;;;;;;;;;;;;;;;27.66;38.85;100945.91;5078518;28;890;-41
2022/05/15 10:05:30;;;;;;;;;;;;;;;27.67;38.83;100942.22;5078110;28;821;-36
2022/05/15 10:08:02;;;;;;;;;;;;;;;27.66;39.16;100945.09;5078346;28;852;-40
2022/05/15 10:10:31;;;;;;;;;;;;;;;27.69;38.77;100936.66;5078559;28;797;-40
2022/05/15 10:12:58;;;;;;;;;;;;;;;27.84;38.17;100937.50;5060650;28;753;-41
2022/05/15 10:15:25;;;;;;;;;;;;;;;28.00;38.05;100938.38;5077752;28;1437;-41
2022/05/15 10:17:54;;;;;;;;;;;;;;;27.85;38.27;100935.66;5060854;28;747;-40
2022/05/15 10:20:22;;;;;;;;;;;;;;;27.95;38.06;100930.81;5077535;28;1992;-41
2022/05/15 10:22:47;;;;;;;;;;;;;;;27.92;38.65;100928.50;5078734;28;726;-38
2022/05/15 10:25:17;;;;;;;;;;;;;;;27.94;38.61;100933.72;5078018;28;932;-39
2022/05/15 10:27:46;;;;;;;;;;;;;;;27.77;38.70;100935.72;5059960;28;775;-40
2022/05/15 10:30:16;;;;;;;;;;;;;;;27.90;39.18;100929.69;5077850;28;986;-39
2022/05/15 10:32:41;;;;;;;;;;;;;;;27.88;38.49;100929.88;5060410;28;955;-36
2022/05/15 10:35:07;;;;;;;;;;;;;;;27.81;39.06;100924.34;5077535;28;971;-36
2022/05/15 10:37:41;;;;;;;;;;;;;;;27.82;38.68;100922.50;5077320;28;848;-37
2022/05/15 10:40:14;;;;;;;;;;;;;;;27.81;38.91;100927.06;5077876;28;1969;-40
2022/05/15 10:42:58;;;;;;;;;;;;;;;27.96;38.34;100931.69;5059712;28;808;-40
2022/05/15 10:45:46;;;;;;;;;;;;;;;28.13;37.92;100947.72;5075908;28;1267;-41
2022/05/15 10:48:29;;;;;;;;;;;;;;;28.11;37.60;100940.63;5074924;28;1176;-38
2022/05/15 10:51:13;;;;;;;;;;;;;;;28.06;37.50;100956.56;5058657;28;1187;-39
2022/05/15 10:59:40;;;;;;;;;;;;;;;27.91;37.69;100953.00;5076788;28;1950;-37
2022/05/15 11:02:11;;;;;;;;;;;;;;;27.90;37.68;100945.91;5077130;28;1007;-38
2022/05/15 11:04:43;;;;;;;;;;;;;;;27.86;38.17;100940.06;5077004;28;822;-39
2022/05/15 11:07:13;;;;;;;;;;;;;;;28.00;37.75;100941.09;5059629;28;934;-36
2022/05/15 11:09:44;;;;;;;;;;;;;;;27.96;37.47;100942.50;5059741;28;929;-37
2022/05/15 11:12:15;;;;;;;;;;;;;;;27.94;37.59;100942.69;5058757;28;873;-39
2022/05/15 11:14:44;;;;;;;;;;;;;;;27.97;37.64;100941.47;5077269;28;810;-40
2022/05/15 11:17:21;;;;;;;;;;;;;;;27.90;37.72;100945.91;5076612;28;987;-39
2022/05/15 11:19:46;;;;;;;;;;;;;;;27.84;37.88;100940.22;5076498;28;1951;-39
2022/05/15 11:22:15;;;;;;;;;;;;;;;27.86;37.64;100945.47;5058859;28;814;-39
2022/05/15 11:24:59;;;;;;;;;;;;;;;27.83;37.65;100943.09;5075675;28;1222;-35
2022/05/15 11:27:59;;;;;;;;;;;;;;;27.86;37.16;100940.88;5056004;28;1265;-40
2022/05/15 11:30:25;;;;;;;;;;;;;;;27.80;37.24;100936.22;4980212;28;1148;-40
2022/05/15 11:32:54;;;;;;;;;;;;;;;27.82;37.37;100936.03;5059424;28;1044;-40
2022/05/15 11:35:20;;;;;;;;;;;;;;;27.79;37.13;100939.94;5076283;28;823;-37
2022/05/15 11:37:53;;;;;;;;;;;;;;;27.84;36.81;100933.97;5075802;28;925;-38
2022/05/15 11:40:37;;;;;;;;;;;;;;;27.74;37.13;100940.47;5076513;28;1909;-39
2022/05/15 11:43:28;;;;;;;;;;;;;;;27.77;36.92;100941.13;5076517;28;898;-39
2022/05/15 11:46:01;;;;;;;;;;;;;;;27.73;36.90;100941.50;5071988;28;1162;-40
2022/05/15 11:48:30;;;;;;;;;;;;;;;27.74;36.77;100940.47;5058316;28;853;-40
2022/05/15 11:51:22;;;;;;;;;;;;;;;27.74;36.95;100935.06;5076324;28;896;-40
2022/05/15 11:53:48;;;;;;;;;;;;;;;27.70;36.80;100930.22;5076096;28;836;-40
2022/05/15 11:56:19;;;;;;;;;;;;;;;27.71;36.67;100930.03;5076124;28;824;-37
2022/05/15 11:58:47;;;;;;;;;;;;;;;27.62;37.11;100918.44;5076322;28;793;-41
2022/05/15 12:01:18;;;;;;;;;;;;;;;27.61;36.85;100915.91;5057616;28;1986;-37
2022/05/15 12:03:46;;;;;;;;;;;;;;;27.62;36.95;100923.00;5075685;28;907;-40
2022/05/15 12:06:23;;;;;;;;;;;;;;;27.61;36.80;100918.63;5075659;28;853;-38
2022/05/15 12:09:08;;;;;;;;;;;;;;;27.60;36.78;100914.22;5075805;28;773;-36
2022/05/15 12:11:34;;;;;;;;;;;;;;;27.60;36.74;100904.25;5034886;28;1100;-38
2022/05/15 12:14:19;;;;;;;;;;;;;;;27.63;36.84;100905.75;5076306;28;814;-40
2022/05/15 12:17:00;;;;;;;;;;;;;;;27.64;37.04;100893.94;5075061;28;1291;-40
2022/05/15 12:19:31;;;;;;;;;;;;;;;27.60;37.18;100888.06;5075277;28;1905;-37
2022/05/15 12:21:58;;;;;;;;;;;;;;;27.61;36.91;100878.91;5076295;28;1573;-37
2022/05/15 12:24:33;;;;;;;;;;;;;;;27.62;37.04;100866.25;5075995;28;931;-40
2022/05/15 12:27:21;;;;;;;;;;;;;;;27.66;37.26;100867.53;5075635;28;1078;-40
2022/05/15 12:29:55;;;;;;;;;;;;;;;27.71;37.53;100878.69;5055861;28;883;-38
2022/05/15 12:32:53;;;;;;;;;;;;;;;27.68;37.84;100886.28;5055787;28;869;-40
2022/05/15 12:35:30;;;;;;;;;;;;;;;27.69;37.32;100883.44;5035843;28;1513;-40
2022/05/15 12:37:56;;;;;;;;;;;;;;;27.71;37.35;100894.88;5055769;28;842;-40
2022/05/15 12:40:26;;;;;;;;;;;;;;;27.70;37.27;100895.94;5041041;28;1911;-40
2022/05/15 12:42:53;;;;;;;;;;;;;;;27.68;36.93;100888.97;5075736;28;845;-40
2022/05/15 12:45:20;;;;;;;;;;;;;;;27.61;37.14;100888.91;5075573;28;999;-39
2022/05/15 12:48:02;;;;;;;;;;;;;;;27.61;36.76;100881.63;5075508;28;833;-39
2022/05/15 12:50:27;;;;;;;;;;;;;;;27.64;37.07;100877.72;5057353;28;1033;-39
2022/05/15 12:52:53;;;;;;;;;;;;;;;27.65;37.38;100882.09;5075046;28;1047;-40
2022/05/15 12:55:32;;;;;;;;;;;;;;;27.62;37.34;100868.94;5075543;28;901;-40
2022/05/15 12:57:57;;;;;;;;;;;;;;;27.62;36.76;100875.19;5075899;28;799;-40
2022/05/15 13:00:33;;;;;;;;;;;;;;;27.63;36.94;100871.47;5075183;28;1972;-39
2022/05/15 13:03:02;;;;;;;;;;;;;;;27.61;36.31;100869.97;5075216;28;937;-39
2022/05/15 13:05:32;;;;;;;;;;;;;;;27.66;36.54;100872.94;5075226;28;837;-40
2022/05/15 13:07:58;;;;;;;;;;;;;;;27.67;36.15;100874.66;5077674;28;879;-39
2022/05/15 13:10:23;;;;;;;;;;;;;;;27.74;36.42;100872.09;5078543;28;862;-40
2022/05/15 13:12:56;;;;;;;;;;;;;;;27.74;36.65;100867.50;5079148;28;747;-38
2022/05/15 13:15:25;;;;;;;;;;;;;;;27.85;36.47;100857.25;5078593;28;966;-40
2022/05/15 13:17:51;;;;;;;;;;;;;;;27.81;36.56;100858.66;5078740;28;823;-40
2022/05/15 13:20:17;;;;;;;;;;;;;;;27.80;36.55;100863.22;5059821;28;1961;-38
2022/05/15 13:22:42;;;;;;;;;;;;;;;27.74;36.62;100850.47;5061155;28;778;-37
2022/05/15 13:25:09;;;;;;;;;;;;;;;27.75;36.46;100858.38;5060766;28;881;-38